createdAt,value
2018-05-24T00:00:04.646Z,68.90
2018-05-24T00:02:30.810Z,69.80
2018-05-24T00:04:57.048Z,69.40
2018-05-24T00:07:23.952Z,69.80
2018-05-24T00:09:50.570Z,69.70
2018-05-24T00:12:16.792Z,70.40
2018-05-24T00:14:42.928Z,70.40
2018-05-24T00:17:09.105Z,70.00
2018-05-24T00:19:35.269Z,70.80
2018-05-24T00:22:01.532Z,70.40
2018-05-24T00:24:27.669Z,70.90
2018-05-24T00:26:53.827Z,71.20
2018-05-24T00:29:20.720Z,70.90
2018-05-24T00:31:46.908Z,70.90
2018-05-24T00:34:13.792Z,71.20
2018-05-24T00:36:39.926Z,71.10
2018-05-24T00:39:06.076Z,70.30
2018-05-24T00:41:32.233Z,69.40
2018-05-24T00:43:59.264Z,69.40
2018-05-24T00:46:25.420Z,69.40
2018-05-24T00:48:51.562Z,69.70
2018-05-24T00:51:17.740Z,70.40
2018-05-24T00:53:43.904Z,69.40
2018-05-24T00:56:10.082Z,68.50
2018-05-24T00:58:36.337Z,68.50
2018-05-24T01:01:03.411Z,69.50
2018-05-24T01:03:29.561Z,69.50
2018-05-24T01:05:55.781Z,68.80
2018-05-24T01:08:21.940Z,69.30
2018-05-24T01:10:48.133Z,70.20
2018-05-24T01:13:14.275Z,69.70
2018-05-24T01:15:40.611Z,70.40
2018-05-24T01:18:06.700Z,71.00
2018-05-24T01:20:33.596Z,71.70
2018-05-24T01:22:59.752Z,71.50
2018-05-24T01:25:25.933Z,72.00
2018-05-24T01:27:52.259Z,73.40
2018-05-24T01:30:18.404Z,73.50
2018-05-24T01:32:44.541Z,73.00
2018-05-24T01:35:10.717Z,73.30
2018-05-24T01:37:49.259Z,72.60
2018-05-24T01:40:15.572Z,73.30
2018-05-24T01:42:41.727Z,75.10
2018-05-24T01:45:07.886Z,74.20
2018-05-24T01:47:34.040Z,74.00
2018-05-24T01:50:00.952Z,73.80
2018-05-24T01:52:27.112Z,74.60
2018-05-24T01:54:54.064Z,73.80
2018-05-24T01:57:20.948Z,73.70
2018-05-24T01:59:47.113Z,73.70
2018-05-24T02:02:13.268Z,74.80
2018-05-24T02:04:39.417Z,74.30
2018-05-24T02:07:05.585Z,73.80
2018-05-24T02:09:31.873Z,73.20
2018-05-24T02:11:58.020Z,74.00
2018-05-24T02:14:24.189Z,73.50
2018-05-24T02:16:51.493Z,73.70
2018-05-24T02:19:17.640Z,73.60
2018-05-24T02:21:43.785Z,74.30
2018-05-24T02:24:09.939Z,74.00
2018-05-24T02:26:36.816Z,74.40
2018-05-24T02:29:03.103Z,74.30
2018-05-24T02:31:29.280Z,73.80
2018-05-24T02:33:55.425Z,73.90
2018-05-24T02:36:21.589Z,73.60
2018-05-24T02:38:48.993Z,75.10
2018-05-24T02:41:15.163Z,75.10
2018-05-24T02:43:42.064Z,74.70
2018-05-24T02:46:08.340Z,74.60
2018-05-24T02:48:35.260Z,77.20
2018-05-24T02:51:01.434Z,76.30
2018-05-24T02:53:27.592Z,77.10
2018-05-24T02:55:53.879Z,76.60
2018-05-24T02:58:20.768Z,76.40
2018-05-24T03:00:46.941Z,76.20
2018-05-24T03:03:13.102Z,76.40
2018-05-24T03:05:39.276Z,75.90
2018-05-24T03:08:05.892Z,76.70
2018-05-24T03:10:32.089Z,76.30
2018-05-24T03:12:58.239Z,76.20
2018-05-24T03:15:24.749Z,76.20
2018-05-24T03:17:50.899Z,77.40
2018-05-24T03:20:17.081Z,77.60
2018-05-24T03:22:43.985Z,78.10
2018-05-24T03:25:10.143Z,78.80
2018-05-24T03:27:36.340Z,78.20
2018-05-24T03:30:02.542Z,78.70
2018-05-24T03:32:28.704Z,79.00
2018-05-24T03:34:54.948Z,79.20
2018-05-24T03:37:21.084Z,79.70
2018-05-24T03:39:47.701Z,78.60
2018-05-24T03:42:13.959Z,79.40
2018-05-24T03:44:40.875Z,76.90
2018-05-24T03:47:07.038Z,76.90
2018-05-24T03:49:33.916Z,76.00
2018-05-24T03:52:00.171Z,75.90
2018-05-24T03:54:26.300Z,76.20
2018-05-24T03:56:52.524Z,76.10
2018-05-24T04:02:48.328Z,76.00
2018-05-24T04:05:15.268Z,76.60
2018-05-24T04:07:42.172Z,77.10
2018-05-24T04:10:08.396Z,77.00
2018-05-24T04:12:34.568Z,76.60
2018-05-24T04:15:01.602Z,76.20
2018-05-24T04:17:27.768Z,76.20
2018-05-24T04:19:53.927Z,76.30
2018-05-24T04:22:20.088Z,76.30
2018-05-24T04:24:46.988Z,76.90
2018-05-24T04:27:13.147Z,76.90
2018-05-24T04:29:39.300Z,76.30
2018-05-24T04:32:06.248Z,78.10
2018-05-24T04:34:33.148Z,76.40
2018-05-24T04:36:59.301Z,77.20
2018-05-24T04:39:25.477Z,77.50
2018-05-24T04:41:51.772Z,75.80
2018-05-24T04:44:18.677Z,76.40
2018-05-24T04:46:44.836Z,76.30
2018-05-24T04:49:11.727Z,75.00
2018-05-24T04:51:37.937Z,75.00
2018-05-24T04:54:04.126Z,74.80
2018-05-24T04:56:30.337Z,74.10
2018-05-24T04:58:56.500Z,74.60
2018-05-24T05:01:23.477Z,75.20
2018-05-24T05:03:49.680Z,75.10
2018-05-24T05:06:16.696Z,73.60
2018-05-24T05:08:42.845Z,73.50
2018-05-24T05:11:10.163Z,74.10
2018-05-24T05:13:36.316Z,74.10
2018-05-24T05:16:02.478Z,73.40
2018-05-24T05:18:28.753Z,72.40
2018-05-24T05:20:54.936Z,73.30
2018-05-24T05:23:21.192Z,73.30
2018-05-24T05:25:47.372Z,72.70
2018-05-24T05:28:14.279Z,72.60
2018-05-24T05:30:40.488Z,72.50
2018-05-24T05:33:06.639Z,72.70
2018-05-24T05:35:32.808Z,73.20
2018-05-24T05:37:59.705Z,71.60
2018-05-24T05:40:25.888Z,71.60
2018-05-24T05:42:52.793Z,69.10
2018-05-24T05:45:19.003Z,69.10
2018-05-24T05:47:45.153Z,67.60
2018-05-24T05:50:11.342Z,66.30
2018-05-24T05:52:37.498Z,65.90
2018-05-24T05:55:03.667Z,65.40
2018-05-24T05:57:30.641Z,63.10
2018-05-24T05:59:56.812Z,63.10
2018-05-24T06:02:22.981Z,64.50
2018-05-24T06:04:49.231Z,62.70
2018-05-24T06:07:15.392Z,61.10
2018-05-24T06:09:43.319Z,62.40
2018-05-24T06:12:10.410Z,63.30
2018-05-24T06:14:36.590Z,62.00
2018-05-24T06:17:02.781Z,61.30
2018-05-24T06:19:28.952Z,61.30
2018-05-24T06:21:55.176Z,62.20
2018-05-24T06:24:21.341Z,62.20
2018-05-24T06:26:47.500Z,61.80
2018-05-24T06:29:13.688Z,60.90
2018-05-24T06:31:39.824Z,61.60
2018-05-24T06:34:06.008Z,60.90
2018-05-24T06:36:32.181Z,60.70
2018-05-24T06:38:58.436Z,60.00
2018-05-24T06:41:24.672Z,61.70
2018-05-24T06:43:51.557Z,62.00
2018-05-24T06:46:17.724Z,61.60
2018-05-24T06:48:43.876Z,59.90
2018-05-24T06:51:10.777Z,60.70
2018-05-24T06:53:37.008Z,60.60
2018-05-24T06:56:03.144Z,59.60
2018-05-24T06:58:29.300Z,60.60
2018-05-24T07:00:56.216Z,59.90
2018-05-24T07:03:22.448Z,59.70
2018-05-24T07:05:48.709Z,60.20
2018-05-24T07:08:14.821Z,59.60
2018-05-24T07:10:40.967Z,59.90
2018-05-24T07:13:07.901Z,58.60
2018-05-24T07:15:34.061Z,58.40
2018-05-24T07:18:00.232Z,59.40
2018-05-24T07:20:26.512Z,58.20
2018-05-24T07:22:52.708Z,59.20
2018-05-24T07:25:18.892Z,58.20
2018-05-24T07:27:45.124Z,57.70
2018-05-24T07:30:11.274Z,57.60
2018-05-24T07:32:37.420Z,58.30
2018-05-24T07:35:03.711Z,61.00
2018-05-24T07:37:29.862Z,58.30
2018-05-24T07:39:56.004Z,56.70
2018-05-24T07:42:22.173Z,57.70
2018-05-24T07:44:48.339Z,57.90
2018-05-24T07:47:14.729Z,57.50
2018-05-24T07:49:40.907Z,58.00
2018-05-24T07:52:07.190Z,55.90
2018-05-24T07:54:33.349Z,55.80
2018-05-24T07:56:59.524Z,56.40
2018-05-24T07:59:26.821Z,57.90
2018-05-24T08:01:53.040Z,57.90
2018-05-24T08:04:19.187Z,57.10
2018-05-24T08:06:45.358Z,57.20
2018-05-24T08:09:12.249Z,55.30
2018-05-24T08:11:38.561Z,55.30
2018-05-24T08:14:04.707Z,55.40
2018-05-24T08:16:30.840Z,55.90
2018-05-24T08:18:57.002Z,56.60
2018-05-24T08:21:23.165Z,56.00
2018-05-24T08:23:49.381Z,54.90
2018-05-24T08:26:16.285Z,54.80
2018-05-24T08:28:42.441Z,54.80
2018-05-24T08:31:09.461Z,55.50
2018-05-24T08:33:35.609Z,55.40
2018-05-24T08:36:01.994Z,55.10
2018-05-24T08:38:28.156Z,55.50
2018-05-24T08:40:54.318Z,55.90
2018-05-24T08:43:20.477Z,54.30
2018-05-24T08:45:46.772Z,55.70
2018-05-24T08:48:13.763Z,53.30
2018-05-24T08:50:39.996Z,53.20
2018-05-24T08:53:06.309Z,54.20
2018-05-24T08:55:32.693Z,52.80
2018-05-24T08:57:58.967Z,53.30
2018-05-24T09:00:25.217Z,52.80
2018-05-24T09:02:51.468Z,51.80
2018-05-24T09:05:19.165Z,52.30
2018-05-24T09:07:46.056Z,51.00
2018-05-24T09:10:12.301Z,50.80
2018-05-24T09:12:38.456Z,51.00
2018-05-24T09:15:04.632Z,49.90
2018-05-24T09:17:30.942Z,51.30
2018-05-24T09:19:57.088Z,51.70
2018-05-24T09:22:23.246Z,48.00
2018-05-24T09:24:49.570Z,46.70
2018-05-24T09:27:15.753Z,47.40
2018-05-24T09:29:41.916Z,46.80
2018-05-24T09:32:08.088Z,49.20
2018-05-24T09:34:34.996Z,47.30
2018-05-24T09:37:01.641Z,47.20
2018-05-24T09:39:27.825Z,46.90
2018-05-24T09:41:54.065Z,46.80
2018-05-24T09:44:20.310Z,44.70
2018-05-24T09:46:46.522Z,45.90
2018-05-24T09:49:13.880Z,46.40
2018-05-24T09:51:40.013Z,45.90
2018-05-24T09:54:06.179Z,45.00
2018-05-24T09:56:32.508Z,44.80
2018-05-24T09:58:58.638Z,45.20
2018-05-24T10:01:25.151Z,45.90
2018-05-24T10:03:51.320Z,45.60
2018-05-24T10:06:18.212Z,43.70
2018-05-24T10:08:44.440Z,43.70
2018-05-24T10:11:10.645Z,43.80
2018-05-24T10:13:36.793Z,43.40
2018-05-24T10:16:03.016Z,44.50
2018-05-24T10:18:29.212Z,43.80
2018-05-24T10:20:56.186Z,44.30
2018-05-24T10:23:23.434Z,44.40
2018-05-24T10:25:49.712Z,43.60
2018-05-24T10:28:15.874Z,44.50
2018-05-24T10:30:42.799Z,42.30
2018-05-24T10:33:08.973Z,42.20
2018-05-24T10:35:35.129Z,43.80
2018-05-24T10:38:01.304Z,43.90
2018-05-24T10:40:28.212Z,41.80
2018-05-24T10:42:54.424Z,41.90
2018-05-24T10:45:20.615Z,43.70
2018-05-24T10:47:46.800Z,40.10
2018-05-24T10:50:12.965Z,40.60
2018-05-24T10:52:39.851Z,37.20
2018-05-24T10:55:06.069Z,37.30
2018-05-24T10:57:32.349Z,37.70
2018-05-24T10:59:59.339Z,37.10
2018-05-24T11:02:25.573Z,37.10
2018-05-24T11:04:51.914Z,37.70
2018-05-24T11:07:18.169Z,39.40
2018-05-24T11:09:44.609Z,36.70
2018-05-24T11:12:10.980Z,37.30
2018-05-24T11:14:37.224Z,34.80
2018-05-24T11:17:03.496Z,35.90
2018-05-24T11:19:29.745Z,33.70
2018-05-24T11:21:56.826Z,35.60
2018-05-24T11:24:23.096Z,35.70
2018-05-24T11:26:49.453Z,36.90
2018-05-24T11:29:16.458Z,33.40
2018-05-24T11:31:42.898Z,33.20
2018-05-24T11:34:09.853Z,33.70
2018-05-24T11:36:36.295Z,33.70
2018-05-24T11:39:03.430Z,35.00
2018-05-24T11:41:29.793Z,35.00
2018-05-24T11:43:57.562Z,34.80
2018-05-24T11:46:24.607Z,34.10
2018-05-24T11:48:51.712Z,34.70
2018-05-24T11:51:17.989Z,34.70
2018-05-24T11:53:44.977Z,36.00
2018-05-24T11:56:11.295Z,36.00
2018-05-24T11:58:39.214Z,35.00
2018-05-24T12:01:05.643Z,35.70
2018-05-24T12:03:32.707Z,37.70
2018-05-24T12:06:00.016Z,37.70
2018-05-24T12:08:26.248Z,38.40
2018-05-24T12:10:55.565Z,38.60
2018-05-24T12:13:22.723Z,37.30
2018-05-24T12:15:49.032Z,39.20
2018-05-24T12:18:15.406Z,39.00
2018-05-24T12:20:41.723Z,41.00
2018-05-24T12:23:09.470Z,37.80
2018-05-24T12:25:35.743Z,37.80
2018-05-24T12:28:01.979Z,39.80
2018-05-24T12:30:28.253Z,39.00
2018-05-24T12:32:59.115Z,37.90
2018-05-24T12:35:26.699Z,37.30
2018-05-24T12:37:52.895Z,38.10
2018-05-24T12:40:19.266Z,37.60
2018-05-24T12:42:47.088Z,37.80
2018-05-24T12:45:13.385Z,37.70
2018-05-24T12:47:50.800Z,36.50
2018-05-24T12:50:18.755Z,35.10
2018-05-24T12:52:45.032Z,37.20
2018-05-24T12:55:12.051Z,38.00
2018-05-24T12:57:38.505Z,37.70
2018-05-24T13:00:04.908Z,38.00
2018-05-24T13:02:31.179Z,38.00
2018-05-24T13:04:59.785Z,40.20
2018-05-24T13:07:28.042Z,40.40
2018-05-24T13:09:55.106Z,39.90
2018-05-24T13:12:21.467Z,39.90
2018-05-24T13:14:47.752Z,39.30
2018-05-24T13:17:14.184Z,40.70
2018-05-24T13:19:41.185Z,41.80
2018-05-24T13:22:07.464Z,41.70
2018-05-24T13:24:34.189Z,40.90
2018-05-24T13:27:01.138Z,41.60
2018-05-24T13:29:28.127Z,43.90
2018-05-24T13:31:54.591Z,43.30
2018-05-24T13:34:20.935Z,41.30
2018-05-24T13:36:47.252Z,41.50
2018-05-24T13:39:14.558Z,38.90
2018-05-24T13:41:40.864Z,40.50
2018-05-24T13:44:07.143Z,40.70
2018-05-24T13:46:33.550Z,40.90
2018-05-24T13:49:02.856Z,41.80
2018-05-24T13:51:30.145Z,41.60
2018-05-24T13:54:27.884Z,40.80
2018-05-24T13:56:54.939Z,41.00
2018-05-24T13:59:21.160Z,41.50
2018-05-24T14:01:47.470Z,42.70
2018-05-24T14:04:13.722Z,42.70
2018-05-24T14:06:40.052Z,42.40
2018-05-24T14:09:07.239Z,42.80
2018-05-24T14:11:33.529Z,42.80
2018-05-24T14:14:01.915Z,43.40
2018-05-24T14:16:29.770Z,43.50
2018-05-24T14:18:56.082Z,44.10
2018-05-24T14:21:23.134Z,43.00
2018-05-24T14:23:50.164Z,43.90
2018-05-24T14:26:16.540Z,43.80
2018-05-24T14:28:42.913Z,44.30
2018-05-24T14:31:09.181Z,43.60
2018-05-24T14:33:46.850Z,42.50
2018-05-24T14:36:13.118Z,42.40
2018-05-24T14:38:39.444Z,43.10
2018-05-24T14:41:05.743Z,42.60
2018-05-24T14:43:32.085Z,42.70
2018-05-24T14:45:58.384Z,44.70
2018-05-24T14:48:24.638Z,43.70
2018-05-24T14:51:00.958Z,43.30
2018-05-24T14:53:27.221Z,43.90
2018-05-24T14:55:54.153Z,42.60
2018-05-24T14:58:20.524Z,42.20
2018-05-24T15:00:46.967Z,40.30
2018-05-24T15:05:47.047Z,37.40
2018-05-24T15:08:13.368Z,36.40
2018-05-24T15:10:39.814Z,37.60
2018-05-24T15:13:07.117Z,37.90
2018-05-24T15:15:34.154Z,37.80
2018-05-24T15:18:01.259Z,37.80
2018-05-24T15:20:27.551Z,37.80
2018-05-24T15:22:54.556Z,37.80
2018-05-24T16:35:17.044Z,37.30
2018-05-24T16:37:43.421Z,40.50
2018-05-24T16:40:09.698Z,39.70
2018-05-24T16:42:36.119Z,40.00
2018-05-24T16:45:03.231Z,39.90
2018-05-24T16:47:30.295Z,39.80
2018-05-24T16:49:56.551Z,39.60
2018-05-24T16:52:23.523Z,39.90
2018-05-24T16:54:49.911Z,39.90
2018-05-24T16:57:16.929Z,40.50
2018-05-24T16:59:43.288Z,40.40
2018-05-24T17:02:10.320Z,40.20
2018-05-24T17:04:36.976Z,40.00
2018-05-24T17:07:03.993Z,40.60
2018-05-24T17:09:30.268Z,40.50
2018-05-24T17:11:57.305Z,41.40
2018-05-24T17:14:23.617Z,41.40
2018-05-24T17:16:49.942Z,41.20
2018-05-24T17:19:16.199Z,41.60
2018-05-24T17:21:43.212Z,41.50
2018-05-24T17:24:09.599Z,41.40
2018-05-24T17:26:40.908Z,41.30
2018-05-24T17:29:07.210Z,41.60
2018-05-24T17:31:33.504Z,42.00
2018-05-24T17:34:00.357Z,42.30
2018-05-24T17:36:26.633Z,42.70
2018-05-24T17:38:53.049Z,42.20
2018-05-24T17:41:19.309Z,43.00
2018-05-24T17:43:45.600Z,43.00
2018-05-24T17:46:12.760Z,42.70
2018-05-24T17:48:39.151Z,42.70
2018-05-24T17:51:05.476Z,42.60
2018-05-24T17:53:32.973Z,42.40
2018-05-24T17:55:59.995Z,42.50
2018-05-24T17:58:26.227Z,42.60
2018-05-24T18:00:53.289Z,43.40
2018-05-24T18:03:19.613Z,42.90
2018-05-24T18:05:46.600Z,42.80
2018-05-24T18:08:13.053Z,42.80
2018-05-24T18:10:40.221Z,43.20
2018-05-24T18:13:06.452Z,43.10
2018-05-24T18:15:32.764Z,43.10
2018-05-24T18:17:59.765Z,43.40
2018-05-24T18:20:26.056Z,43.30
2018-05-24T18:22:53.123Z,44.10
2018-05-24T18:25:19.390Z,44.10
2018-05-24T18:27:45.675Z,43.80
2018-05-24T18:30:11.956Z,44.40
2018-05-24T18:32:38.195Z,44.20
2018-05-24T18:35:04.530Z,44.60
2018-05-24T18:37:30.851Z,44.90
2018-05-24T18:39:57.138Z,44.90
2018-05-24T18:42:23.432Z,45.00
2018-05-24T18:44:50.427Z,45.40
2018-05-24T18:47:16.710Z,45.30
2018-05-24T18:49:42.974Z,45.20
2018-05-24T18:52:09.598Z,45.80
2018-05-24T18:54:36.584Z,46.10
2018-05-24T18:57:02.887Z,46.00
2018-05-24T18:59:29.147Z,46.00
2018-05-24T19:01:55.447Z,46.00
2018-05-24T19:04:22.467Z,45.90
2018-05-24T19:06:49.482Z,46.40
2018-05-24T19:09:15.779Z,46.40
2018-05-24T19:11:42.357Z,45.80
2018-05-24T19:14:08.593Z,46.20
2018-05-24T19:16:34.824Z,46.50
2018-05-24T19:19:01.334Z,47.00
2018-05-24T19:21:27.641Z,46.90
2018-05-24T19:23:53.827Z,46.30
2018-05-24T19:26:20.779Z,67.00
2018-05-24T19:28:47.784Z,69.00
2018-05-24T19:31:14.064Z,69.20
2018-05-24T19:33:41.003Z,64.80
2018-05-24T19:36:07.993Z,59.20
2018-05-24T19:38:34.256Z,58.90
2018-05-24T19:41:00.539Z,57.70
2018-05-24T19:43:26.832Z,56.40
2018-05-24T19:45:53.407Z,55.30
2018-05-24T19:48:19.706Z,55.50
2018-05-24T19:50:46.689Z,68.10
2018-05-24T19:53:12.922Z,68.00
2018-05-24T19:55:39.189Z,64.10
2018-05-24T19:58:05.441Z,61.00
2018-05-24T20:00:32.454Z,57.60
2018-05-24T20:02:58.798Z,57.70
2018-05-24T20:05:25.067Z,56.80
2018-05-24T20:07:51.423Z,57.90
2018-05-24T20:10:17.802Z,56.50
2018-05-24T20:12:44.078Z,55.60
2018-05-24T20:15:10.962Z,55.10
2018-05-24T20:17:38.017Z,56.30
2018-05-24T20:20:05.366Z,55.40
2018-05-24T20:22:32.393Z,54.80
2018-05-24T20:24:58.651Z,54.70
2018-05-24T20:27:25.057Z,54.70
2018-05-24T20:29:51.333Z,55.70
2018-05-24T20:32:17.904Z,55.50
2018-05-24T20:34:44.232Z,54.90
2018-05-24T20:37:10.543Z,55.80
2018-05-24T20:39:36.957Z,54.30
2018-05-24T20:42:03.180Z,55.00
2018-05-24T20:44:29.429Z,55.60
2018-05-24T20:46:56.286Z,55.00
2018-05-24T20:49:22.507Z,54.70
2018-05-24T20:51:49.115Z,55.40
2018-05-24T20:54:15.378Z,54.60
2018-05-24T20:56:42.383Z,55.20
2018-05-24T20:59:08.669Z,55.10
2018-05-24T21:01:35.227Z,56.90
2018-05-24T21:04:01.587Z,56.40
2018-05-24T21:06:27.962Z,57.30
2018-05-24T21:08:54.901Z,57.90
2018-05-24T21:11:21.201Z,58.20
2018-05-24T21:13:48.215Z,58.40
2018-05-24T21:16:14.824Z,58.40
2018-05-24T21:18:41.196Z,59.40
2018-05-24T21:21:07.484Z,59.90
2018-05-24T21:23:33.786Z,59.80
2018-05-24T21:26:00.800Z,62.70
2018-05-24T21:28:27.056Z,62.00
2018-05-24T21:30:53.345Z,61.60
2018-05-24T21:33:19.584Z,62.00
2018-05-24T21:35:45.826Z,60.60
2018-05-24T21:38:12.837Z,60.20
2018-05-24T21:40:39.228Z,60.30
2018-05-24T21:43:05.522Z,60.80
2018-05-24T21:45:31.805Z,60.90
2018-05-24T21:47:58.062Z,60.30
2018-05-24T21:50:24.376Z,61.20
2018-05-24T21:52:50.987Z,60.50
2018-05-24T21:55:17.565Z,61.60
2018-05-24T21:57:43.813Z,61.30
2018-05-24T22:00:10.868Z,60.60
2018-05-24T22:02:37.153Z,60.60
2018-05-24T22:05:04.160Z,59.80
2018-05-24T22:07:30.535Z,59.60
2018-05-24T22:09:58.137Z,60.40
2018-05-24T22:12:24.432Z,61.10
2018-05-24T22:14:50.964Z,60.00
2018-05-24T22:17:17.354Z,59.50
2018-05-24T22:19:44.453Z,59.60
2018-05-24T22:22:10.977Z,59.60
2018-05-24T22:24:37.256Z,59.90
2018-05-24T22:27:03.522Z,59.60
2018-05-24T22:29:30.589Z,59.60
2018-05-24T22:31:56.872Z,59.60
2018-05-24T22:34:23.108Z,59.60
2018-05-24T22:36:49.451Z,59.90
2018-05-24T22:39:15.781Z,59.80
2018-05-24T22:41:42.074Z,59.80
2018-05-24T22:44:08.386Z,59.90
2018-05-24T22:46:34.993Z,59.60
2018-05-24T22:49:01.992Z,59.80
2018-05-24T22:51:28.225Z,59.60
2018-05-24T22:53:54.549Z,59.90
2018-05-24T22:56:20.792Z,60.10
2018-05-24T22:58:47.028Z,60.00
2018-05-24T23:01:13.277Z,60.10
2018-05-24T23:03:39.542Z,60.20
2018-05-24T23:06:05.880Z,61.00
2018-05-24T23:08:32.157Z,60.50
2018-05-24T23:10:58.463Z,60.90
2018-05-24T23:13:24.711Z,61.80
2018-05-24T23:15:50.992Z,61.50
2018-05-24T23:18:17.359Z,60.90
2018-05-24T23:20:43.640Z,61.30
2018-05-24T23:23:09.957Z,61.50
2018-05-24T23:25:36.286Z,61.40
2018-05-24T23:28:02.568Z,62.60
2018-05-24T23:30:28.823Z,61.80
2018-05-24T23:32:55.112Z,61.80
2018-05-24T23:35:21.379Z,61.80
2018-05-24T23:37:47.632Z,62.10
2018-05-24T23:40:14.741Z,62.60
2018-05-24T23:42:40.949Z,62.50
2018-05-24T23:45:07.240Z,62.40
2018-05-24T23:47:33.567Z,62.80
2018-05-24T23:49:59.860Z,62.80
2018-05-24T23:52:26.131Z,62.80
2018-05-24T23:54:52.567Z,62.90
2018-05-24T23:57:18.827Z,62.80
2018-05-24T23:59:45.124Z,63.10
